LAS weather

McCarran International Airport
Las Vegas, Nevada, United States

Public forecast

Using degrees Fahrenheit for public forecast. Weather courtesy of forecast.io.

METAR (pilot weather report)

Retrieved 2018/10/19 08:56 UTC (16 minutes ago):

KLAS 190856Z 00000KT 10SM CLR 16/01 A3018 RMK AO2 SLP207 T01560011 53006

TAF (pilot weather forecast)

Retrieved 2018/10/19 06:22 UTC (3 hours ago):

TAF KLAS 190520Z 1906/2012 26006KT P6SM SKC FM190900 35007KT P6SM SKC FM191700 01010KT P6SM SKC FM191900 03013G21KT P6SM SKC FM200200 02010KT P6SM SKC FM200900 34007KT P6SM SKC